createdAt,value
2022-08-03T00:02:17.588Z,28.77
2022-08-03T00:04:45.660Z,28.95
2022-08-03T00:07:15.027Z,28.43
2022-08-03T00:09:43.012Z,29.01
2022-08-03T00:12:11.211Z,28.62
2022-08-03T00:14:39.036Z,28.67
2022-08-03T00:17:06.876Z,28.45
2022-08-03T00:19:34.801Z,28.88
2022-08-03T00:22:02.705Z,28.58
2022-08-03T00:24:32.322Z,28.82
2022-08-03T00:27:00.232Z,29.29
2022-08-03T00:29:28.920Z,28.52
2022-08-03T00:32:00.097Z,28.57
2022-08-03T00:34:36.736Z,28.22
2022-08-03T00:37:16.828Z,28.60
2022-08-03T00:39:48.075Z,28.59
2022-08-03T00:42:16.379Z,28.69
2022-08-03T00:44:45.971Z,28.92
2022-08-03T00:47:13.902Z,28.20
2022-08-03T00:49:42.272Z,28.25
2022-08-03T00:52:10.893Z,28.33
2022-08-03T00:54:39.155Z,28.56
2022-08-03T00:57:08.654Z,28.29
2022-08-03T00:59:38.177Z,28.14
2022-08-03T01:02:06.508Z,27.70
2022-08-03T01:04:34.353Z,27.83
2022-08-03T01:07:10.879Z,28.15
2022-08-03T01:09:43.499Z,28.72
2022-08-03T01:12:20.152Z,28.91
2022-08-03T01:14:53.326Z,28.68
2022-08-03T01:17:25.409Z,28.43
2022-08-03T01:19:58.753Z,28.33
2022-08-03T01:22:47.457Z,28.17
2022-08-03T01:25:24.997Z,28.43
2022-08-03T01:27:59.364Z,28.59
2022-08-03T01:30:29.984Z,28.43
2022-08-03T01:33:02.176Z,29.18
2022-08-03T01:35:38.320Z,28.74
2022-08-03T01:38:11.851Z,28.62
2022-08-03T01:40:41.662Z,28.44
2022-08-03T01:43:11.098Z,28.98
2022-08-03T01:45:40.872Z,28.49
2022-08-03T01:48:09.040Z,28.77
2022-08-03T01:50:37.051Z,29.30
2022-08-03T01:53:05.463Z,29.15
2022-08-03T01:55:34.303Z,29.35
2022-08-03T01:58:05.655Z,29.14
2022-08-03T02:00:35.080Z,29.44
2022-08-03T02:03:06.146Z,29.49
2022-08-03T02:05:34.601Z,29.00
2022-08-03T02:08:03.078Z,29.46
2022-08-03T02:10:35.467Z,28.93
2022-08-03T02:13:06.442Z,28.63
2022-08-03T02:15:35.306Z,29.57
2022-08-03T02:18:07.461Z,28.98
2022-08-03T02:20:36.419Z,29.52
2022-08-03T02:23:04.610Z,29.04
2022-08-03T02:25:33.628Z,29.29
2022-08-03T02:28:08.217Z,29.06
2022-08-03T02:30:39.067Z,29.10
2022-08-03T02:33:12.053Z,29.27
2022-08-03T02:35:41.241Z,28.89
2022-08-03T02:38:11.509Z,29.40
2022-08-03T02:40:40.258Z,28.78
2022-08-03T02:43:10.402Z,29.69
2022-08-03T02:45:45.543Z,29.30
2022-08-03T02:48:17.595Z,29.20
2022-08-03T02:50:46.052Z,29.15
2022-08-03T02:53:14.154Z,29.12
2022-08-03T02:55:45.818Z,28.80
2022-08-03T02:58:14.829Z,29.56
2022-08-03T03:00:45.460Z,29.07
2022-08-03T03:03:15.605Z,29.06
2022-08-03T03:05:56.009Z,29.56
2022-08-03T03:08:27.468Z,28.15
2022-08-03T03:10:57.022Z,27.99
2022-08-03T03:13:25.155Z,28.28
2022-08-03T03:15:54.622Z,28.26
2022-08-03T03:18:24.254Z,28.72
2022-08-03T03:20:53.007Z,28.47
2022-08-03T03:23:21.839Z,28.35
2022-08-03T03:25:49.737Z,29.00
2022-08-03T03:28:17.846Z,28.75
2022-08-03T03:30:52.733Z,28.41
2022-08-03T03:33:21.620Z,28.53
2022-08-03T03:35:51.669Z,27.61
2022-08-03T03:38:19.769Z,27.53
2022-08-03T03:40:47.720Z,28.11
2022-08-03T03:43:15.581Z,27.41
2022-08-03T03:45:43.535Z,27.65
2022-08-03T03:48:11.833Z,27.94
2022-08-03T03:50:41.040Z,27.70
2022-08-03T03:53:13.034Z,28.36
2022-08-03T03:56:01.576Z,27.56
2022-08-03T03:58:29.647Z,27.80
2022-08-03T04:00:57.544Z,27.86
2022-08-03T04:03:25.524Z,27.71
2022-08-03T04:09:22.282Z,28.55
2022-08-03T04:12:08.580Z,28.53
2022-08-03T04:14:37.127Z,29.00
2022-08-03T04:17:07.034Z,28.31
2022-08-03T04:19:37.848Z,28.53
2022-08-03T04:22:07.861Z,29.52
2022-08-03T04:24:41.189Z,29.60
2022-08-03T04:27:11.418Z,29.17
2022-08-03T04:29:48.257Z,29.81
2022-08-03T04:32:17.679Z,29.53
2022-08-03T04:34:45.915Z,29.87
2022-08-03T04:37:24.258Z,29.99
2022-08-03T04:39:54.975Z,29.52
2022-08-03T04:42:25.792Z,29.54
2022-08-03T04:44:58.952Z,29.71
2022-08-03T04:47:29.007Z,30.11
2022-08-03T04:49:57.002Z,29.77
2022-08-03T04:52:24.871Z,30.22
2022-08-03T04:54:54.169Z,30.83
2022-08-03T04:57:22.846Z,30.22
2022-08-03T04:59:59.603Z,30.32
2022-08-03T05:02:30.912Z,29.97
2022-08-03T05:04:59.196Z,31.04
2022-08-03T05:07:36.357Z,30.72
2022-08-03T05:10:14.986Z,30.85
2022-08-03T05:12:45.406Z,31.05
2022-08-03T05:15:13.677Z,31.57
2022-08-03T05:17:41.655Z,31.31
2022-08-03T05:20:11.077Z,31.01
2022-08-03T05:22:38.964Z,31.58
2022-08-03T05:25:08.905Z,31.34
2022-08-03T05:27:36.710Z,31.02
2022-08-03T05:34:18.036Z,30.93
2022-08-03T05:36:48.724Z,31.23
2022-08-03T05:39:16.572Z,31.59
2022-08-03T05:41:45.799Z,30.57
2022-08-03T05:44:13.718Z,30.45
2022-08-03T05:46:41.534Z,31.89
2022-08-03T05:49:09.453Z,30.73
2022-08-03T05:51:37.276Z,31.15
2022-08-03T05:54:05.323Z,30.28
2022-08-03T05:56:33.150Z,30.50
2022-08-03T05:59:22.474Z,31.12
2022-08-03T06:01:51.691Z,31.18
2022-08-03T06:04:19.836Z,30.77
2022-08-03T06:06:48.308Z,31.10
2022-08-03T06:09:16.317Z,30.76
2022-08-03T06:11:44.384Z,31.66
2022-08-03T06:14:15.275Z,32.91
2022-08-03T06:16:43.222Z,32.23
2022-08-03T06:19:11.088Z,32.13
2022-08-03T06:21:39.853Z,32.73
2022-08-03T06:24:08.470Z,32.27
2022-08-03T06:26:36.894Z,32.02
2022-08-03T06:29:04.833Z,32.57
2022-08-03T06:31:37.820Z,33.04
2022-08-03T06:34:33.267Z,33.64
2022-08-03T06:36:58.638Z,32.92
2022-08-03T06:39:29.958Z,32.64
2022-08-03T06:41:58.033Z,33.40
2022-08-03T06:44:26.192Z,33.02
2022-08-03T06:46:55.782Z,33.78
2022-08-03T06:49:23.913Z,33.95
2022-08-03T06:52:06.262Z,33.47
2022-08-03T06:54:37.716Z,32.84
2022-08-03T06:57:08.062Z,33.93
2022-08-03T07:00:07.338Z,35.06
2022-08-03T07:02:25.014Z,34.29
2022-08-03T07:04:56.097Z,35.85
2022-08-03T07:07:24.047Z,36.55
2022-08-03T07:09:56.823Z,34.82
2022-08-03T07:12:27.278Z,35.90
2022-08-03T07:14:59.746Z,35.85
2022-08-03T07:17:30.923Z,34.50
2022-08-03T07:19:58.868Z,34.19
2022-08-03T07:22:26.788Z,34.49
2022-08-03T07:24:54.778Z,34.45
2022-08-03T07:27:22.576Z,34.84
2022-08-03T07:29:50.375Z,35.12
2022-08-03T07:32:18.605Z,35.16
2022-08-03T07:34:47.981Z,35.20
2022-08-03T07:37:15.814Z,36.47
2022-08-03T07:39:43.733Z,34.35
2022-08-03T07:42:11.631Z,34.50
2022-08-03T07:44:39.848Z,35.42
2022-08-03T07:47:07.660Z,34.94
2022-08-03T07:49:41.138Z,35.46
2022-08-03T07:52:28.313Z,34.86
2022-08-03T07:54:56.583Z,34.02
2022-08-03T07:57:24.533Z,35.31
2022-08-03T08:00:01.435Z,35.71
2022-08-03T08:02:39.857Z,35.59
2022-08-03T08:05:08.551Z,34.42
2022-08-03T08:07:37.781Z,35.13
2022-08-03T08:10:06.680Z,35.49
2022-08-03T08:12:34.486Z,35.33
2022-08-03T08:15:02.312Z,35.04
2022-08-03T08:17:30.115Z,35.59
2022-08-03T08:19:57.952Z,34.49
2022-08-03T08:22:30.628Z,35.47
2022-08-03T08:25:01.516Z,36.68
2022-08-03T08:28:31.517Z,33.98
2022-08-03T08:30:19.577Z,36.08
2022-08-03T08:32:47.796Z,36.20
2022-08-03T08:35:15.658Z,34.21
2022-08-03T08:37:44.283Z,34.91
2022-08-03T08:40:22.082Z,35.74
2022-08-03T08:42:59.086Z,36.96
2022-08-03T08:45:27.508Z,36.70
2022-08-03T08:48:00.810Z,38.33
2022-08-03T08:50:29.849Z,37.24
2022-08-03T08:53:02.102Z,36.59
2022-08-03T08:55:58.314Z,36.44
2022-08-03T08:58:21.044Z,37.08
2022-08-03T09:00:49.368Z,38.13
2022-08-03T09:03:22.391Z,37.48
2022-08-03T09:05:57.708Z,36.93
2022-08-03T09:08:25.613Z,37.08
2022-08-03T09:10:54.849Z,37.69
2022-08-03T09:13:22.809Z,36.69
2022-08-03T09:16:00.722Z,36.93
2022-08-03T09:18:32.950Z,36.92
2022-08-03T09:21:34.265Z,37.22
2022-08-03T09:24:05.127Z,39.39
2022-08-03T09:26:37.059Z,40.57
2022-08-03T09:29:13.532Z,40.29
2022-08-03T09:31:44.658Z,39.76
2022-08-03T09:34:13.872Z,37.77
2022-08-03T09:36:43.987Z,39.64
2022-08-03T09:39:13.565Z,40.21
2022-08-03T09:41:44.205Z,38.91
2022-08-03T09:44:24.412Z,37.35
2022-08-03T09:46:54.837Z,37.93
2022-08-03T09:49:22.963Z,37.97
2022-08-03T09:52:32.867Z,38.81
2022-08-03T09:54:39.517Z,37.99
2022-08-03T09:57:08.989Z,37.60
2022-08-03T09:59:39.158Z,38.28
2022-08-03T10:02:22.034Z,40.06
2022-08-03T10:04:52.477Z,38.57
2022-08-03T10:07:21.068Z,40.52
2022-08-03T10:09:57.134Z,41.47
2022-08-03T10:12:26.843Z,40.41
2022-08-03T10:14:55.770Z,38.52
2022-08-03T10:17:24.246Z,37.89
2022-08-03T10:19:52.081Z,37.30
2022-08-03T10:22:22.420Z,37.98
2022-08-03T10:24:54.796Z,39.30
2022-08-03T10:27:24.372Z,39.80
2022-08-03T10:29:57.098Z,38.71
2022-08-03T10:32:29.764Z,39.88
2022-08-03T10:35:20.371Z,40.74
2022-08-03T10:37:56.947Z,39.07
2022-08-03T10:43:22.866Z,39.50
2022-08-03T10:45:52.525Z,41.44
2022-08-03T10:48:20.930Z,39.94
2022-08-03T10:50:50.238Z,40.97
2022-08-03T10:53:20.001Z,41.22
2022-08-03T10:56:11.205Z,38.93
2022-08-03T10:58:57.006Z,38.88
2022-08-03T11:02:00.802Z,42.27
2022-08-03T11:04:30.946Z,41.69
2022-08-03T11:07:22.400Z,39.90
2022-08-03T11:09:53.560Z,39.72
2022-08-03T11:12:27.839Z,39.87
2022-08-03T11:15:00.486Z,41.51
2022-08-03T11:17:28.570Z,41.43
2022-08-03T11:19:58.639Z,42.28
2022-08-03T11:22:29.118Z,42.90
2022-08-03T11:25:00.698Z,42.77
2022-08-03T11:27:30.312Z,42.49
2022-08-03T11:30:00.986Z,43.41
2022-08-03T11:32:59.737Z,43.61
2022-08-03T11:35:30.564Z,44.13
2022-08-03T11:38:09.900Z,41.09
2022-08-03T11:40:42.311Z,40.92
2022-08-03T11:43:11.397Z,43.67
2022-08-03T11:45:39.482Z,43.46
2022-08-03T11:48:17.886Z,45.03
2022-08-03T11:50:47.000Z,46.04
2022-08-03T11:53:19.895Z,44.31
2022-08-03T11:55:49.814Z,43.94
2022-08-03T11:59:16.528Z,44.04
2022-08-03T12:01:08.758Z,44.32
2022-08-03T12:03:37.171Z,45.64
2022-08-03T12:06:12.274Z,45.76
2022-08-03T12:08:40.857Z,46.84
2022-08-03T12:11:10.603Z,47.67
2022-08-03T12:14:10.661Z,48.80
2022-08-03T12:16:29.613Z,49.17
2022-08-03T12:18:58.643Z,49.77
2022-08-03T12:21:27.977Z,47.80
2022-08-03T12:23:58.990Z,49.19
2022-08-03T12:26:27.315Z,48.35
2022-08-03T12:28:55.223Z,48.52
2022-08-03T12:31:23.418Z,49.66
2022-08-03T12:34:02.756Z,48.83
2022-08-03T12:36:33.966Z,49.29
2022-08-03T12:39:03.171Z,51.34
2022-08-03T12:41:34.037Z,47.28
2022-08-03T12:44:03.401Z,46.33
2022-08-03T12:46:34.143Z,47.48
2022-08-03T12:49:07.704Z,47.66
2022-08-03T12:51:38.924Z,48.69
2022-08-03T12:54:06.936Z,50.53
2022-08-03T12:56:35.845Z,51.05
2022-08-03T12:59:34.759Z,50.56
2022-08-03T13:02:15.656Z,50.18
2022-08-03T13:04:43.651Z,48.97
2022-08-03T13:07:14.315Z,48.94
2022-08-03T13:09:46.845Z,48.64
2022-08-03T13:12:16.244Z,45.20
2022-08-03T13:14:45.144Z,49.39
2022-08-03T13:17:13.449Z,49.91
2022-08-03T13:19:41.736Z,45.19
2022-08-03T13:22:15.246Z,46.50
2022-08-03T13:24:44.056Z,45.27
2022-08-03T13:28:01.465Z,44.61
2022-08-03T13:30:00.755Z,45.32
2022-08-03T13:32:28.773Z,50.51
2022-08-03T13:34:56.649Z,50.85
2022-08-03T13:37:26.284Z,48.41
2022-08-03T13:39:59.482Z,48.49
2022-08-03T13:42:30.275Z,49.69
2022-08-03T13:44:58.614Z,50.63
2022-08-03T13:47:26.693Z,50.08
2022-08-03T13:50:01.279Z,51.26
2022-08-03T13:52:36.048Z,48.96
2022-08-03T13:55:05.257Z,48.57
2022-08-03T13:58:03.455Z,47.03
2022-08-03T14:00:26.984Z,49.66
2022-08-03T14:03:04.034Z,48.75
2022-08-03T14:05:33.480Z,50.74
2022-08-03T14:08:05.346Z,49.24
2022-08-03T14:10:34.718Z,47.18
2022-08-03T14:13:02.590Z,49.94
2022-08-03T14:15:30.604Z,51.34
2022-08-03T14:17:58.981Z,49.96
2022-08-03T14:20:37.912Z,49.08
2022-08-03T14:23:15.650Z,49.79
2022-08-03T14:25:52.441Z,50.04
2022-08-03T14:28:23.424Z,49.10
2022-08-03T14:30:51.977Z,51.92
2022-08-03T14:33:20.041Z,50.05
2022-08-03T14:35:47.900Z,49.30
2022-08-03T14:38:17.403Z,50.54
2022-08-03T14:40:45.394Z,52.26
2022-08-03T14:43:13.290Z,50.66
2022-08-03T14:45:41.300Z,49.35
2022-08-03T14:50:30.251Z,51.59
2022-08-03T14:50:57.162Z,47.64
2022-08-03T14:53:26.353Z,50.77
2022-08-03T14:55:54.178Z,48.94
2022-08-03T14:58:22.691Z,50.11
2022-08-03T15:00:51.810Z,51.39
2022-08-03T15:03:23.133Z,48.11
2022-08-03T15:05:51.931Z,49.14
2022-08-03T15:08:19.930Z,47.76
2022-08-03T15:10:49.602Z,46.90
2022-08-03T15:13:18.005Z,49.00
2022-08-03T15:15:46.061Z,49.88
2022-08-03T15:18:13.999Z,48.82
2022-08-03T15:20:45.547Z,48.03
2022-08-03T15:23:23.450Z,49.54
2022-08-03T15:26:28.329Z,47.63
2022-08-03T15:28:40.552Z,48.61
2022-08-03T15:31:08.443Z,50.96
2022-08-03T15:33:36.404Z,49.27
2022-08-03T15:36:07.627Z,48.67
2022-08-03T15:38:35.507Z,50.89
2022-08-03T15:41:08.749Z,51.64
2022-08-03T15:43:42.052Z,52.00
2022-08-03T15:46:31.006Z,51.25
2022-08-03T15:48:59.145Z,49.46
2022-08-03T15:51:27.012Z,48.67
2022-08-03T15:53:55.962Z,47.18
2022-08-03T15:56:25.268Z,45.67
2022-08-03T15:59:09.609Z,43.23
2022-08-03T16:01:41.105Z,42.02
2022-08-03T16:04:09.403Z,44.10
2022-08-03T16:06:37.202Z,44.34
2022-08-03T16:09:23.899Z,43.41
2022-08-03T16:11:56.593Z,41.64
2022-08-03T16:14:34.678Z,42.06
2022-08-03T16:17:06.077Z,42.35
2022-08-03T16:19:33.952Z,41.73
2022-08-03T16:22:03.543Z,42.22
2022-08-03T16:24:31.931Z,43.34
2022-08-03T16:27:01.166Z,43.46
2022-08-03T16:29:29.665Z,42.93
2022-08-03T16:31:57.630Z,42.63
2022-08-03T16:34:25.607Z,43.93
2022-08-03T16:36:54.625Z,43.40
2022-08-03T16:39:22.642Z,42.78
2022-08-03T16:41:54.378Z,41.97
2022-08-03T16:44:31.500Z,42.06
2022-08-03T16:46:59.826Z,41.91
2022-08-03T16:49:54.657Z,42.20
2022-08-03T16:52:16.752Z,43.07
2022-08-03T16:54:50.548Z,43.93
2022-08-03T16:57:55.911Z,42.32
2022-08-03T17:00:11.785Z,45.53
2022-08-03T17:02:48.033Z,45.62
2022-08-03T17:05:16.317Z,46.23
2022-08-03T17:07:46.957Z,45.82
2022-08-03T17:10:22.055Z,49.28
2022-08-03T17:12:55.258Z,48.21
2022-08-03T17:15:38.366Z,48.01
2022-08-03T17:18:17.795Z,48.92
2022-08-03T17:20:47.973Z,47.76
2022-08-03T17:23:35.462Z,47.68
2022-08-03T17:26:18.761Z,45.75
2022-08-03T17:28:57.478Z,44.74
2022-08-03T17:31:30.789Z,44.08
2022-08-03T17:34:01.873Z,44.49
2022-08-03T17:36:54.096Z,42.69
2022-08-03T17:39:30.770Z,42.16
2022-08-03T17:42:05.377Z,43.65
2022-08-03T17:44:54.006Z,44.92
2022-08-03T17:47:29.295Z,44.72
2022-08-03T17:50:24.067Z,45.69
2022-08-03T17:53:07.236Z,44.60
2022-08-03T17:55:57.326Z,44.92
2022-08-03T17:58:37.942Z,43.48
2022-08-03T18:02:00.411Z,44.50
2022-08-03T18:04:21.138Z,44.01
2022-08-03T18:06:59.424Z,42.71
2022-08-03T18:10:06.399Z,42.22
2022-08-03T18:12:22.689Z,42.15
2022-08-03T18:14:57.174Z,41.23
2022-08-03T18:18:01.881Z,41.13
2022-08-03T18:20:31.164Z,40.89
2022-08-03T18:23:04.907Z,40.52
2022-08-03T18:25:44.873Z,40.26
2022-08-03T18:28:15.404Z,40.05
2022-08-03T18:30:54.387Z,39.67
2022-08-03T18:34:16.858Z,39.20
2022-08-03T18:36:17.832Z,39.42
2022-08-03T18:38:53.888Z,39.22
2022-08-03T18:41:32.148Z,38.95
2022-08-03T18:44:07.879Z,38.67
2022-08-03T18:46:47.269Z,38.44
2022-08-03T18:49:24.859Z,38.39
2022-08-03T18:52:04.805Z,37.88
2022-08-03T18:55:01.182Z,37.85
2022-08-03T18:57:39.710Z,37.58
2022-08-03T19:00:14.019Z,37.80
2022-08-03T19:02:49.033Z,37.32
2022-08-03T19:05:19.591Z,37.29
2022-08-03T19:08:00.171Z,36.98
2022-08-03T19:10:32.408Z,36.76
2022-08-03T19:13:05.459Z,36.73
2022-08-03T19:15:50.979Z,36.82
2022-08-03T19:18:19.346Z,36.40
2022-08-03T19:20:51.128Z,36.99
2022-08-03T19:23:24.963Z,36.97
2022-08-03T19:25:52.753Z,36.41
2022-08-03T19:28:21.416Z,36.16
2022-08-03T19:31:06.539Z,36.00
2022-08-03T19:33:56.176Z,35.88
2022-08-03T19:36:27.529Z,35.82
2022-08-03T19:38:57.534Z,35.61
2022-08-03T19:41:26.333Z,35.25
2022-08-03T19:44:00.266Z,34.82
2022-08-03T19:46:32.204Z,34.80
2022-08-03T19:49:01.170Z,35.27
2022-08-03T19:52:01.247Z,34.99
2022-08-03T19:54:25.290Z,34.82
2022-08-03T19:56:57.303Z,34.83
2022-08-03T19:59:26.484Z,35.10
2022-08-03T20:01:54.961Z,34.71
2022-08-03T20:04:22.581Z,34.59
2022-08-03T20:06:52.209Z,34.29
2022-08-03T20:09:21.196Z,34.57
2022-08-03T20:11:48.838Z,34.46
2022-08-03T20:14:20.902Z,34.27
2022-08-03T20:16:54.371Z,34.25
2022-08-03T20:19:21.991Z,33.75
2022-08-03T20:21:51.332Z,34.24
2022-08-03T20:24:24.564Z,34.17
2022-08-03T20:26:54.907Z,33.98
2022-08-03T20:29:42.600Z,33.84
2022-08-03T20:32:14.335Z,33.69
2022-08-03T20:34:42.045Z,33.38
2022-08-03T20:37:09.661Z,33.40
2022-08-03T20:39:39.858Z,33.35
2022-08-03T20:45:13.934Z,33.43
2022-08-03T20:47:50.834Z,33.83
2022-08-03T20:50:21.834Z,33.13
2022-08-03T20:52:50.034Z,33.31
2022-08-03T20:55:18.891Z,33.71
2022-08-03T20:58:07.844Z,33.60
2022-08-03T21:00:35.665Z,33.56
2022-08-03T21:03:03.847Z,33.11
2022-08-03T21:05:48.397Z,33.36
2022-08-03T21:08:19.088Z,33.23
2022-08-03T21:10:46.701Z,33.05
2022-08-03T21:13:07.251Z,33.93
2022-08-03T21:16:11.322Z,33.08
2022-08-03T21:18:42.229Z,32.94
2022-08-03T21:21:10.364Z,32.78
2022-08-03T21:23:45.435Z,32.91
2022-08-03T21:26:17.223Z,32.71
2022-08-03T21:28:46.224Z,32.47
2022-08-03T21:31:14.159Z,32.71
2022-08-03T21:33:47.508Z,33.32
2022-08-03T21:36:15.491Z,33.26
2022-08-03T21:38:43.778Z,33.20
2022-08-03T21:41:15.118Z,33.06
2022-08-03T21:43:42.741Z,32.93
2022-08-03T21:46:12.950Z,33.17
2022-08-03T21:48:41.435Z,32.18
2022-08-03T21:51:10.430Z,32.24
2022-08-03T21:54:02.205Z,31.96
2022-08-03T21:56:25.896Z,32.13
2022-08-03T21:58:55.464Z,32.11
2022-08-03T22:01:25.376Z,32.06
2022-08-03T22:03:54.301Z,32.06
2022-08-03T22:06:22.138Z,31.88
2022-08-03T22:08:50.640Z,31.64
2022-08-03T22:11:18.243Z,31.32
2022-08-03T22:13:46.690Z,31.61
2022-08-03T22:16:14.419Z,31.69
2022-08-03T22:18:44.777Z,31.53
2022-08-03T22:21:13.759Z,31.39
2022-08-03T22:23:41.915Z,32.08
2022-08-03T22:26:10.503Z,31.69
2022-08-03T22:28:38.158Z,31.81
2022-08-03T22:31:30.678Z,31.93
2022-08-03T22:33:55.059Z,31.86
2022-08-03T22:36:24.153Z,32.19
2022-08-03T22:38:51.859Z,32.20
2022-08-03T22:41:19.652Z,31.65
2022-08-03T22:43:47.229Z,31.48
2022-08-03T22:46:18.564Z,31.52
2022-08-03T22:48:46.448Z,31.74
2022-08-03T22:51:15.442Z,31.72
2022-08-03T22:53:43.067Z,32.01
2022-08-03T22:56:10.686Z,32.36
2022-08-03T22:58:38.327Z,31.71
2022-08-03T23:01:07.227Z,31.48
2022-08-03T23:04:00.985Z,31.35
2022-08-03T23:06:25.644Z,31.52
2022-08-03T23:08:53.458Z,30.74
2022-08-03T23:11:21.065Z,30.72
2022-08-03T23:13:48.836Z,30.82
2022-08-03T23:16:16.454Z,31.53
2022-08-03T23:18:57.142Z,31.50
2022-08-03T23:22:00.685Z,31.31
2022-08-03T23:24:24.623Z,30.12
2022-08-03T23:26:58.088Z,30.53
2022-08-03T23:29:25.701Z,30.55
2022-08-03T23:31:53.343Z,30.50
2022-08-03T23:34:38.579Z,30.49
2022-08-03T23:37:07.587Z,30.35
2022-08-03T23:39:35.509Z,30.96
2022-08-03T23:42:05.728Z,31.11
2022-08-03T23:44:33.426Z,30.26
2022-08-03T23:47:01.193Z,30.53
2022-08-03T23:49:28.849Z,30.47
2022-08-03T23:51:58.519Z,30.37
2022-08-03T23:54:30.025Z,30.48
2022-08-03T23:57:02.012Z,30.54
2022-08-03T23:59:41.975Z,30.79
